Mount Darwin, Zimbabwe
Current Conditions -  °F | °C
As of 2:00 PM on Thursday 29 Jan 2015 (Local Time) from FVHA Reporting Station
Broken Clouds Broken Clouds  
Wind Chill: 72°   Ceiling: 3000
Heat Index: 72°   Visibility: 6mi
Dew Point: 64°   Wind: 10mph
Humidity: 78%   Direction: 140°SE
Pressure: 30.03"   Gusts: 23mph
Location:  16.77°S, 31.58°E
Report Text: FVHA 291200Z 14009G20KT 110V190 9999 BKN030TCU 22/18 Q1017 NOSIG
Loading
Personal Weather Stations






























Interactive Weather Map New forecast layout! Learn more

10-Day Weather Forecast

Advertisements
Track Severe Weather on mobile